sensor_id;sensor_type;location;lat;lon;timestamp;pressure;altitude;pressure_sealevel;temperature;humidity
73024;BME280;61199;47.526;8.538;2023-05-28T00:01:38;96498.22;;;20.41;45.14
73024;BME280;61199;47.526;8.538;2023-05-28T00:04:04;96505.97;;;20.43;45.55
73024;BME280;61199;47.526;8.538;2023-05-28T00:06:31;96500.97;;;20.27;45.33
73024;BME280;61199;47.526;8.538;2023-05-28T00:08:57;96506.03;;;20.22;46.26
73024;BME280;61199;47.526;8.538;2023-05-28T00:11:24;96505.91;;;20.09;45.86
73024;BME280;61199;47.526;8.538;2023-05-28T00:13:50;96502.47;;;20.15;46.29
73024;BME280;61199;47.526;8.538;2023-05-28T00:16:16;96491.69;;;20.02;47.05
73024;BME280;61199;47.526;8.538;2023-05-28T00:18:43;96496.13;;;19.95;46.34
73024;BME280;61199;47.526;8.538;2023-05-28T00:21:09;96498.16;;;19.93;46.71
73024;BME280;61199;47.526;8.538;2023-05-28T00:23:37;96485.50;;;19.74;47.42
73024;BME280;61199;47.526;8.538;2023-05-28T00:26:05;96478.03;;;19.84;46.96
73024;BME280;61199;47.526;8.538;2023-05-28T00:28:31;96478.81;;;19.84;46.90
73024;BME280;61199;47.526;8.538;2023-05-28T00:30:58;96482.06;;;19.80;46.79
73024;BME280;61199;47.526;8.538;2023-05-28T00:33:24;96474.47;;;19.56;47.64
73024;BME280;61199;47.526;8.538;2023-05-28T00:35:52;96475.28;;;19.56;47.55
73024;BME280;61199;47.526;8.538;2023-05-28T00:38:22;96472.81;;;19.55;47.72
73024;BME280;61199;47.526;8.538;2023-05-28T00:40:49;96471.25;;;19.60;47.42
73024;BME280;61199;47.526;8.538;2023-05-28T00:43:16;96472.88;;;19.61;47.36
73024;BME280;61199;47.526;8.538;2023-05-28T00:45:42;96469.91;;;19.71;47.39
73024;BME280;61199;47.526;8.538;2023-05-28T00:48:09;96471.47;;;19.65;47.58
73024;BME280;61199;47.526;8.538;2023-05-28T00:50:36;96468.47;;;19.33;48.69
73024;BME280;61199;47.526;8.538;2023-05-28T00:53:04;96462.78;;;19.36;48.41
73024;BME280;61199;47.526;8.538;2023-05-28T00:55:31;96466.19;;;19.15;48.99
73024;BME280;61199;47.526;8.538;2023-05-28T00:57:57;96471.44;;;19.23;48.64
73024;BME280;61199;47.526;8.538;2023-05-28T01:00:33;96472.91;;;18.68;50.33
73024;BME280;61199;47.526;8.538;2023-05-28T01:03:00;96469.63;;;18.66;50.05
73024;BME280;61199;47.526;8.538;2023-05-28T01:05:27;96461.56;;;18.88;49.77
73024;BME280;61199;47.526;8.538;2023-05-28T01:07:54;96457.53;;;18.78;50.09
73024;BME280;61199;47.526;8.538;2023-05-28T01:10:20;96455.06;;;18.76;49.48
73024;BME280;61199;47.526;8.538;2023-05-28T01:12:47;96458.63;;;18.69;50.31
73024;BME280;61199;47.526;8.538;2023-05-28T01:15:14;96447.28;;;18.75;49.93
73024;BME280;61199;47.526;8.538;2023-05-28T01:17:40;96454.16;;;18.69;49.92
73024;BME280;61199;47.526;8.538;2023-05-28T01:20:07;96449.94;;;18.75;50.42
73024;BME280;61199;47.526;8.538;2023-05-28T01:22:45;96452.41;;;18.62;50.42
73024;BME280;61199;47.526;8.538;2023-05-28T01:25:12;96455.06;;;18.62;49.81
73024;BME280;61199;47.526;8.538;2023-05-28T01:27:42;96445.25;;;18.77;49.64
73024;BME280;61199;47.526;8.538;2023-05-28T01:30:09;96448.56;;;18.79;49.75
73024;BME280;61199;47.526;8.538;2023-05-28T01:32:36;96445.19;;;18.70;50.36
73024;BME280;61199;47.526;8.538;2023-05-28T01:35:04;96447.91;;;18.77;50.26
73024;BME280;61199;47.526;8.538;2023-05-28T01:37:33;96452.22;;;18.78;50.36
73024;BME280;61199;47.526;8.538;2023-05-28T01:40:01;96447.75;;;18.78;50.87
73024;BME280;61199;47.526;8.538;2023-05-28T01:42:30;96445.00;;;18.86;51.18
73024;BME280;61199;47.526;8.538;2023-05-28T01:44:58;96450.31;;;18.86;51.04
73024;BME280;61199;47.526;8.538;2023-05-28T01:47:25;96451.75;;;18.89;51.05
73024;BME280;61199;47.526;8.538;2023-05-28T01:49:52;96446.09;;;18.92;50.79
73024;BME280;61199;47.526;8.538;2023-05-28T01:52:19;96441.81;;;18.76;51.65
73024;BME280;61199;47.526;8.538;2023-05-28T01:54:46;96438.31;;;18.76;51.51
73024;BME280;61199;47.526;8.538;2023-05-28T01:57:12;96436.91;;;18.80;51.39
73024;BME280;61199;47.526;8.538;2023-05-28T01:59:38;96442.44;;;18.78;51.50
73024;BME280;61199;47.526;8.538;2023-05-28T02:02:06;96440.34;;;18.74;51.67
73024;BME280;61199;47.526;8.538;2023-05-28T02:04:33;96441.13;;;18.74;51.71
73024;BME280;61199;47.526;8.538;2023-05-28T02:07:00;96434.94;;;18.67;52.08
73024;BME280;61199;47.526;8.538;2023-05-28T02:09:26;96441.44;;;18.65;51.82
73024;BME280;61199;47.526;8.538;2023-05-28T02:11:53;96438.97;;;18.63;51.99
73024;BME280;61199;47.526;8.538;2023-05-28T02:14:20;96439.50;;;18.44;52.05
73024;BME280;61199;47.526;8.538;2023-05-28T02:16:47;96438.50;;;18.45;52.19
73024;BME280;61199;47.526;8.538;2023-05-28T02:19:15;96444.72;;;18.38;52.42
73024;BME280;61199;47.526;8.538;2023-05-28T02:21:42;96451.22;;;18.35;52.30
73024;BME280;61199;47.526;8.538;2023-05-28T02:24:08;96452.22;;;18.49;51.95
73024;BME280;61199;47.526;8.538;2023-05-28T02:26:35;96451.50;;;18.55;51.84
73024;BME280;61199;47.526;8.538;2023-05-28T02:29:02;96439.50;;;18.44;51.79
73024;BME280;61199;47.526;8.538;2023-05-28T02:31:28;96441.34;;;18.44;52.09
73024;BME280;61199;47.526;8.538;2023-05-28T02:33:55;96440.34;;;18.45;52.06
73024;BME280;61199;47.526;8.538;2023-05-28T02:36:21;96435.38;;;18.42;52.35
73024;BME280;61199;47.526;8.538;2023-05-28T02:38:49;96439.78;;;18.35;52.44
73024;BME280;61199;47.526;8.538;2023-05-28T02:41:16;96435.47;;;18.34;52.39
73024;BME280;61199;47.526;8.538;2023-05-28T02:43:43;96436.47;;;18.33;52.65
73024;BME280;61199;47.526;8.538;2023-05-28T02:46:10;96438.25;;;18.40;52.45
73024;BME280;61199;47.526;8.538;2023-05-28T02:48:37;96439.78;;;18.35;51.95
73024;BME280;61199;47.526;8.538;2023-05-28T02:51:03;96432.69;;;18.27;52.51
73024;BME280;61199;47.526;8.538;2023-05-28T02:53:30;96436.69;;;18.09;53.47
73024;BME280;61199;47.526;8.538;2023-05-28T02:55:58;96439.81;;;18.12;53.20
73024;BME280;61199;47.526;8.538;2023-05-28T02:58:24;96442.38;;;18.20;53.26
73024;BME280;61199;47.526;8.538;2023-05-28T03:00:51;96440.63;;;18.13;53.17
73024;BME280;61199;47.526;8.538;2023-05-28T03:03:17;96446.00;;;18.05;54.00
73024;BME280;61199;47.526;8.538;2023-05-28T03:05:44;96443.84;;;17.86;53.98
73024;BME280;61199;47.526;8.538;2023-05-28T03:08:10;96441.22;;;18.00;54.07
73024;BME280;61199;47.526;8.538;2023-05-28T03:10:37;96446.63;;;18.07;53.84
73024;BME280;61199;47.526;8.538;2023-05-28T03:13:03;96445.00;;;18.06;53.56
73024;BME280;61199;47.526;8.538;2023-05-28T03:15:30;96447.72;;;17.98;53.74
73024;BME280;61199;47.526;8.538;2023-05-28T03:17:57;96451.53;;;17.81;54.19
73024;BME280;61199;47.526;8.538;2023-05-28T03:20:23;96452.56;;;17.94;53.97
73024;BME280;61199;47.526;8.538;2023-05-28T03:22:55;96449.94;;;17.94;54.20
73024;BME280;61199;47.526;8.538;2023-05-28T03:25:23;96453.00;;;17.98;54.32
73024;BME280;61199;47.526;8.538;2023-05-28T03:27:51;96457.88;;;17.94;54.04
73024;BME280;61199;47.526;8.538;2023-05-28T03:30:18;96458.22;;;17.69;54.60
73024;BME280;61199;47.526;8.538;2023-05-28T03:32:45;96455.94;;;17.88;53.59
73024;BME280;61199;47.526;8.538;2023-05-28T03:35:11;96455.09;;;17.88;53.79
73024;BME280;61199;47.526;8.538;2023-05-28T03:37:38;96452.09;;;17.91;53.17
73024;BME280;61199;47.526;8.538;2023-05-28T03:40:05;96452.53;;;17.80;53.59
73024;BME280;61199;47.526;8.538;2023-05-28T03:42:31;96457.53;;;17.75;53.73
73024;BME280;61199;47.526;8.538;2023-05-28T03:44:58;96455.50;;;17.77;53.40
73024;BME280;61199;47.526;8.538;2023-05-28T03:47:24;96456.94;;;17.65;53.75
73024;BME280;61199;47.526;8.538;2023-05-28T03:49:51;96453.94;;;17.68;53.91
73024;BME280;61199;47.526;8.538;2023-05-28T03:52:17;96460.22;;;17.67;53.77
73024;BME280;61199;47.526;8.538;2023-05-28T03:54:44;96468.03;;;17.69;53.52
73024;BME280;61199;47.526;8.538;2023-05-28T03:57:10;96465.59;;;17.59;53.79
73024;BME280;61199;47.526;8.538;2023-05-28T03:59:36;96470.94;;;17.51;54.03
73024;BME280;61199;47.526;8.538;2023-05-28T04:02:03;96469.59;;;17.55;54.02
73024;BME280;61199;47.526;8.538;2023-05-28T04:04:29;96468.59;;;17.56;54.86
73024;BME280;61199;47.526;8.538;2023-05-28T04:06:56;96469.34;;;17.42;54.14
73024;BME280;61199;47.526;8.538;2023-05-28T04:09:22;96482.09;;;17.39;53.64
73024;BME280;61199;47.526;8.538;2023-05-28T04:11:49;96476.00;;;17.38;53.46
73024;BME280;61199;47.526;8.538;2023-05-28T04:14:15;96480.66;;;17.36;52.80
73024;BME280;61199;47.526;8.538;2023-05-28T04:16:42;96479.59;;;17.45;52.89
73024;BME280;61199;47.526;8.538;2023-05-28T04:19:08;96484.22;;;17.43;54.06
73024;BME280;61199;47.526;8.538;2023-05-28T04:21:34;96481.25;;;17.46;53.80
73024;BME280;61199;47.526;8.538;2023-05-28T04:24:01;96477.56;;;17.55;53.75
73024;BME280;61199;47.526;8.538;2023-05-28T04:26:28;96479.19;;;17.56;52.97
73024;BME280;61199;47.526;8.538;2023-05-28T04:28:54;96481.31;;;17.61;53.28
73024;BME280;61199;47.526;8.538;2023-05-28T04:31:21;96484.44;;;17.64;53.53
73024;BME280;61199;47.526;8.538;2023-05-28T04:33:48;96478.34;;;17.78;53.22
73024;BME280;61199;47.526;8.538;2023-05-28T04:36:14;96482.84;;;17.78;52.85
73024;BME280;61199;47.526;8.538;2023-05-28T04:38:41;96476.38;;;17.80;53.21
73024;BME280;61199;47.526;8.538;2023-05-28T04:41:08;96485.63;;;17.84;53.13
73024;BME280;61199;47.526;8.538;2023-05-28T04:43:35;96487.44;;;17.83;52.57
73024;BME280;61199;47.526;8.538;2023-05-28T04:46:02;96487.84;;;17.73;52.26
73024;BME280;61199;47.526;8.538;2023-05-28T04:48:30;96492.72;;;17.83;52.00
73024;BME280;61199;47.526;8.538;2023-05-28T04:51:01;96485.56;;;17.92;51.75
73024;BME280;61199;47.526;8.538;2023-05-28T04:53:29;96486.13;;;18.02;52.28
73024;BME280;61199;47.526;8.538;2023-05-28T04:55:57;96486.50;;;17.99;52.08
73024;BME280;61199;47.526;8.538;2023-05-28T04:58:23;96495.84;;;18.09;51.38
73024;BME280;61199;47.526;8.538;2023-05-28T05:00:50;96490.00;;;18.14;50.27
73024;BME280;61199;47.526;8.538;2023-05-28T05:03:17;96494.59;;;18.20;50.88
73024;BME280;61199;47.526;8.538;2023-05-28T05:05:43;96497.88;;;18.22;51.18
73024;BME280;61199;47.526;8.538;2023-05-28T05:08:10;96483.28;;;18.26;51.39
73024;BME280;61199;47.526;8.538;2023-05-28T05:10:39;96486.91;;;18.25;51.72
73024;BME280;61199;47.526;8.538;2023-05-28T05:13:06;96489.75;;;18.23;51.98
73024;BME280;61199;47.526;8.538;2023-05-28T05:15:32;96490.75;;;18.22;51.39
73024;BME280;61199;47.526;8.538;2023-05-28T05:17:59;96491.88;;;18.28;51.12
73024;BME280;61199;47.526;8.538;2023-05-28T05:20:26;96492.53;;;18.30;50.92
73024;BME280;61199;47.526;8.538;2023-05-28T05:22:53;96491.16;;;18.34;50.85
73024;BME280;61199;47.526;8.538;2023-05-28T05:25:19;96494.47;;;18.36;50.99
73024;BME280;61199;47.526;8.538;2023-05-28T05:27:49;96489.66;;;18.39;50.70
73024;BME280;61199;47.526;8.538;2023-05-28T05:30:16;96485.50;;;18.37;50.69
73024;BME280;61199;47.526;8.538;2023-05-28T05:32:43;96490.53;;;18.46;50.59
73024;BME280;61199;47.526;8.538;2023-05-28T05:35:09;96490.66;;;18.53;49.97
73024;BME280;61199;47.526;8.538;2023-05-28T05:37:36;96493.59;;;18.58;50.49
73024;BME280;61199;47.526;8.538;2023-05-28T05:40:03;96490.75;;;18.59;49.59
73024;BME280;61199;47.526;8.538;2023-05-28T05:42:31;96497.72;;;18.60;50.08
73024;BME280;61199;47.526;8.538;2023-05-28T05:44:58;96492.72;;;18.43;50.21
73024;BME280;61199;47.526;8.538;2023-05-28T05:47:24;96502.25;;;18.52;49.86
73024;BME280;61199;47.526;8.538;2023-05-28T05:49:51;96503.47;;;18.64;49.49
73024;BME280;61199;47.526;8.538;2023-05-28T05:52:17;96501.09;;;18.69;49.07
73024;BME280;61199;47.526;8.538;2023-05-28T05:54:44;96502.72;;;18.70;49.55
73024;BME280;61199;47.526;8.538;2023-05-28T05:57:10;96505.31;;;18.78;49.56
73024;BME280;61199;47.526;8.538;2023-05-28T05:59:37;96507.88;;;18.86;48.90
73024;BME280;61199;47.526;8.538;2023-05-28T06:02:04;96503.66;;;18.77;48.54
73024;BME280;61199;47.526;8.538;2023-05-28T06:04:31;96512.09;;;18.66;48.98
73024;BME280;61199;47.526;8.538;2023-05-28T06:07:03;96506.06;;;18.72;48.83
73024;BME280;61199;47.526;8.538;2023-05-28T06:09:33;96510.63;;;18.78;48.27
73024;BME280;61199;47.526;8.538;2023-05-28T06:12:00;96507.22;;;18.69;48.51
73024;BME280;61199;47.526;8.538;2023-05-28T06:14:27;96504.28;;;18.64;48.30
73024;BME280;61199;47.526;8.538;2023-05-28T06:16:54;96506.31;;;18.62;48.47
73024;BME280;61199;47.526;8.538;2023-05-28T06:19:21;96506.41;;;18.69;48.12
73024;BME280;61199;47.526;8.538;2023-05-28T06:21:48;96502.47;;;18.79;47.64
73024;BME280;61199;47.526;8.538;2023-05-28T06:24:14;96500.00;;;18.78;47.66
73024;BME280;61199;47.526;8.538;2023-05-28T06:26:41;96503.41;;;18.72;49.89
73024;BME280;61199;47.526;8.538;2023-05-28T06:29:07;96505.03;;;18.73;49.22
73024;BME280;61199;47.526;8.538;2023-05-28T06:31:36;96500.28;;;18.83;49.14
73024;BME280;61199;47.526;8.538;2023-05-28T06:34:02;96502.47;;;18.94;48.28
73024;BME280;61199;47.526;8.538;2023-05-28T06:36:29;96494.50;;;19.08;47.82
73024;BME280;61199;47.526;8.538;2023-05-28T06:38:55;96499.63;;;19.10;48.00
73024;BME280;61199;47.526;8.538;2023-05-28T06:41:21;96498.00;;;19.23;47.32
73024;BME280;61199;47.526;8.538;2023-05-28T06:43:48;96498.63;;;19.25;47.23
73024;BME280;61199;47.526;8.538;2023-05-28T06:46:14;96501.53;;;19.30;47.27
73024;BME280;61199;47.526;8.538;2023-05-28T06:48:42;96506.03;;;19.30;47.68
73024;BME280;61199;47.526;8.538;2023-05-28T06:51:08;96500.06;;;19.42;47.63
73024;BME280;61199;47.526;8.538;2023-05-28T06:53:34;96502.97;;;19.47;47.38
73024;BME280;61199;47.526;8.538;2023-05-28T06:56:01;96496.00;;;19.46;47.21
73024;BME280;61199;47.526;8.538;2023-05-28T06:58:28;96504.59;;;19.48;47.29
73024;BME280;61199;47.526;8.538;2023-05-28T07:00:54;96493.63;;;19.51;47.03
73024;BME280;61199;47.526;8.538;2023-05-28T07:03:21;96488.19;;;19.59;46.86
73024;BME280;61199;47.526;8.538;2023-05-28T07:05:47;96496.97;;;19.60;46.93
73024;BME280;61199;47.526;8.538;2023-05-28T07:08:13;96496.91;;;19.53;47.70
73024;BME280;61199;47.526;8.538;2023-05-28T07:10:40;96492.78;;;19.51;47.48
73024;BME280;61199;47.526;8.538;2023-05-28T07:13:06;96494.16;;;19.61;47.13
73024;BME280;61199;47.526;8.538;2023-05-28T07:15:33;96490.59;;;19.75;47.10
73024;BME280;61199;47.526;8.538;2023-05-28T07:17:59;96495.16;;;19.81;46.55
73024;BME280;61199;47.526;8.538;2023-05-28T07:20:27;96495.22;;;19.88;46.91
73024;BME280;61199;47.526;8.538;2023-05-28T07:22:54;96494.47;;;19.94;46.49
73024;BME280;61199;47.526;8.538;2023-05-28T07:25:21;96491.56;;;19.89;46.64
73024;BME280;61199;47.526;8.538;2023-05-28T07:27:48;96492.00;;;19.71;46.93
73024;BME280;61199;47.526;8.538;2023-05-28T07:30:14;96490.69;;;19.82;46.77
73024;BME280;61199;47.526;8.538;2023-05-28T07:32:40;96489.34;;;19.71;47.32
73024;BME280;61199;47.526;8.538;2023-05-28T07:35:07;96493.31;;;19.61;47.73
73024;BME280;61199;47.526;8.538;2023-05-28T07:37:34;96492.06;;;19.57;47.81
73024;BME280;61199;47.526;8.538;2023-05-28T07:40:01;96494.38;;;19.81;47.16
73024;BME280;61199;47.526;8.538;2023-05-28T07:42:27;96489.78;;;19.75;47.13
73024;BME280;61199;47.526;8.538;2023-05-28T07:44:54;96494.47;;;19.94;46.88
73024;BME280;61199;47.526;8.538;2023-05-28T07:47:20;96492.50;;;20.02;46.72
73024;BME280;61199;47.526;8.538;2023-05-28T07:49:47;96494.47;;;19.94;46.85
73024;BME280;61199;47.526;8.538;2023-05-28T07:52:13;96495.00;;;20.04;46.38
73024;BME280;61199;47.526;8.538;2023-05-28T07:54:39;96492.06;;;19.99;47.26
73024;BME280;61199;47.526;8.538;2023-05-28T07:57:06;96492.22;;;19.91;46.76
73024;BME280;61199;47.526;8.538;2023-05-28T07:59:32;96491.22;;;20.13;46.75
73024;BME280;61199;47.526;8.538;2023-05-28T08:01:59;96485.34;;;20.24;46.40
73024;BME280;61199;47.526;8.538;2023-05-28T08:04:26;96482.56;;;20.32;45.91
73024;BME280;61199;47.526;8.538;2023-05-28T08:06:53;96484.19;;;20.33;46.50
73024;BME280;61199;47.526;8.538;2023-05-28T08:09:19;96477.50;;;20.16;46.95
73024;BME280;61199;47.526;8.538;2023-05-28T08:11:47;96477.50;;;20.16;46.33
73024;BME280;61199;47.526;8.538;2023-05-28T08:14:13;96471.03;;;20.25;46.39
73024;BME280;61199;47.526;8.538;2023-05-28T08:16:40;96471.03;;;20.25;47.26
73024;BME280;61199;47.526;8.538;2023-05-28T08:19:07;96469.78;;;20.21;46.91
73024;BME280;61199;47.526;8.538;2023-05-28T08:21:33;96460.94;;;20.14;46.61
73024;BME280;61199;47.526;8.538;2023-05-28T08:24:00;96460.50;;;20.38;46.16
73024;BME280;61199;47.526;8.538;2023-05-28T08:26:27;96461.78;;;20.48;46.03
73024;BME280;61199;47.526;8.538;2023-05-28T08:28:53;96466.03;;;20.64;45.37
73024;BME280;61199;47.526;8.538;2023-05-28T08:31:20;96462.72;;;20.62;45.77
73024;BME280;61199;47.526;8.538;2023-05-28T08:33:47;96460.03;;;20.62;45.43
73024;BME280;61199;47.526;8.538;2023-05-28T08:36:13;96461.50;;;20.64;45.93
73024;BME280;61199;47.526;8.538;2023-05-28T08:38:40;96451.03;;;20.63;45.55
73024;BME280;61199;47.526;8.538;2023-05-28T08:41:07;96458.25;;;20.69;45.77
73024;BME280;61199;47.526;8.538;2023-05-28T08:43:33;96445.78;;;20.69;45.68
73024;BME280;61199;47.526;8.538;2023-05-28T08:46:00;96453.31;;;20.66;45.22
73024;BME280;61199;47.526;8.538;2023-05-28T08:48:30;96444.88;;;20.90;44.61
73024;BME280;61199;47.526;8.538;2023-05-28T08:51:00;96438.34;;;20.99;44.88
73024;BME280;61199;47.526;8.538;2023-05-28T08:53:35;96443.22;;;20.89;45.42
73024;BME280;61199;47.526;8.538;2023-05-28T08:56:03;96444.81;;;20.83;45.87
73024;BME280;61199;47.526;8.538;2023-05-28T08:58:29;96449.72;;;20.80;45.54
73024;BME280;61199;47.526;8.538;2023-05-28T09:00:56;96444.09;;;20.96;45.59
73024;BME280;61199;47.526;8.538;2023-05-28T09:03:22;96445.34;;;21.00;45.63
73024;BME280;61199;47.526;8.538;2023-05-28T09:05:49;96443.53;;;21.13;45.85
73024;BME280;61199;47.526;8.538;2023-05-28T09:08:16;96448.69;;;21.14;45.50
73024;BME280;61199;47.526;8.538;2023-05-28T09:10:42;96439.31;;;21.25;44.93
73024;BME280;61199;47.526;8.538;2023-05-28T09:13:09;96439.78;;;21.48;44.19
73024;BME280;61199;47.526;8.538;2023-05-28T09:15:35;96432.38;;;21.43;44.73
73024;BME280;61199;47.526;8.538;2023-05-28T09:18:04;96445.44;;;21.25;44.65
73024;BME280;61199;47.526;8.538;2023-05-28T09:20:31;96435.28;;;21.48;44.26
73024;BME280;61199;47.526;8.538;2023-05-28T09:23:03;96432.69;;;21.68;44.06
73024;BME280;61199;47.526;8.538;2023-05-28T09:25:30;96435.97;;;21.76;43.97
73024;BME280;61199;47.526;8.538;2023-05-28T09:27:59;96437.00;;;21.75;44.37
73024;BME280;61199;47.526;8.538;2023-05-28T09:30:27;96432.91;;;21.86;43.78
73024;BME280;61199;47.526;8.538;2023-05-28T09:32:59;96427.59;;;21.99;43.64
73024;BME280;61199;47.526;8.538;2023-05-28T09:35:28;96426.75;;;21.98;43.15
73024;BME280;61199;47.526;8.538;2023-05-28T09:38:06;96422.66;;;22.02;43.40
73024;BME280;61199;47.526;8.538;2023-05-28T09:40:41;96423.50;;;22.16;43.14
73024;BME280;61199;47.526;8.538;2023-05-28T09:43:09;96427.59;;;22.25;43.40
73024;BME280;61199;47.526;8.538;2023-05-28T09:45:36;96419.59;;;22.18;44.01
73024;BME280;61199;47.526;8.538;2023-05-28T09:48:03;96418.97;;;22.29;43.06
73024;BME280;61199;47.526;8.538;2023-05-28T09:50:30;96422.25;;;22.12;44.13
73024;BME280;61199;47.526;8.538;2023-05-28T09:52:57;96418.94;;;22.36;43.64
73024;BME280;61199;47.526;8.538;2023-05-28T09:55:25;96422.03;;;22.52;43.30
73024;BME280;61199;47.526;8.538;2023-05-28T09:58:02;96413.81;;;22.60;42.96
73024;BME280;61199;47.526;8.538;2023-05-28T10:00:39;96414.22;;;22.57;42.44
73024;BME280;61199;47.526;8.538;2023-05-28T10:03:19;96426.78;;;22.50;42.75
73024;BME280;61199;47.526;8.538;2023-05-28T10:06:00;96421.81;;;22.60;43.15
73024;BME280;61199;47.526;8.538;2023-05-28T10:08:27;96423.47;;;22.55;43.30
73024;BME280;61199;47.526;8.538;2023-05-28T10:10:54;96408.25;;;22.68;43.20
73024;BME280;61199;47.526;8.538;2023-05-28T10:13:22;96419.09;;;22.86;43.04
73024;BME280;61199;47.526;8.538;2023-05-28T10:15:49;96414.13;;;22.96;42.33
73024;BME280;61199;47.526;8.538;2023-05-28T10:18:16;96415.28;;;23.13;42.03
73024;BME280;61199;47.526;8.538;2023-05-28T10:20:43;96417.56;;;23.10;41.71
73024;BME280;61199;47.526;8.538;2023-05-28T10:23:10;96409.34;;;23.18;41.64
73024;BME280;61199;47.526;8.538;2023-05-28T10:25:37;96413.66;;;23.12;41.61
73024;BME280;61199;47.526;8.538;2023-05-28T10:28:03;96413.44;;;23.07;42.03
73024;BME280;61199;47.526;8.538;2023-05-28T10:30:39;96409.34;;;23.18;42.08
73024;BME280;61199;47.526;8.538;2023-05-28T10:33:07;96401.88;;;23.33;41.83
73024;BME280;61199;47.526;8.538;2023-05-28T10:35:34;96401.63;;;23.34;41.26
73024;BME280;61199;47.526;8.538;2023-05-28T10:38:05;96409.75;;;23.52;41.13
73024;BME280;61199;47.526;8.538;2023-05-28T10:40:35;96400.41;;;23.68;40.81
73024;BME280;61199;47.526;8.538;2023-05-28T10:43:05;96390.53;;;23.68;40.78
73024;BME280;61199;47.526;8.538;2023-05-28T10:45:36;96399.94;;;23.77;40.93
73024;BME280;61199;47.526;8.538;2023-05-28T10:48:03;96398.22;;;23.89;40.44
73024;BME280;61199;47.526;8.538;2023-05-28T10:50:29;96405.41;;;23.95;40.46
73024;BME280;61199;47.526;8.538;2023-05-28T10:53:09;96403.44;;;24.09;40.48
73024;BME280;61199;47.526;8.538;2023-05-28T10:55:49;96406.06;;;24.15;39.99
73024;BME280;61199;47.526;8.538;2023-05-28T10:58:27;96397.69;;;24.05;39.75
73024;BME280;61199;47.526;8.538;2023-05-28T11:01:03;96397.97;;;23.97;39.62
73024;BME280;61199;47.526;8.538;2023-05-28T11:03:52;96389.19;;;24.15;39.51
73024;BME280;61199;47.526;8.538;2023-05-28T11:06:19;96396.84;;;24.11;40.42
73024;BME280;61199;47.526;8.538;2023-05-28T11:08:47;96385.69;;;24.14;39.58
73024;BME280;61199;47.526;8.538;2023-05-28T11:11:15;96389.06;;;24.28;40.04
73024;BME280;61199;47.526;8.538;2023-05-28T11:13:44;96379.25;;;24.39;39.80
73024;BME280;61199;47.526;8.538;2023-05-28T11:16:13;96388.34;;;24.38;39.36
73024;BME280;61199;47.526;8.538;2023-05-28T11:19:07;96380.78;;;24.53;39.33
73024;BME280;61199;47.526;8.538;2023-05-28T11:21:54;96380.19;;;24.27;39.46
73024;BME280;61199;47.526;8.538;2023-05-28T11:24:24;96368.03;;;24.49;39.19
73024;BME280;61199;47.526;8.538;2023-05-28T11:26:53;96382.16;;;24.62;39.26
73024;BME280;61199;47.526;8.538;2023-05-28T11:29:22;96375.81;;;24.57;38.86
73024;BME280;61199;47.526;8.538;2023-05-28T11:31:49;96369.72;;;24.68;38.78
73024;BME280;61199;47.526;8.538;2023-05-28T11:34:19;96370.19;;;24.83;38.31
73024;BME280;61199;47.526;8.538;2023-05-28T11:36:46;96367.50;;;24.83;37.96
73024;BME280;61199;47.526;8.538;2023-05-28T11:39:12;96367.91;;;24.98;38.29
73024;BME280;61199;47.526;8.538;2023-05-28T11:41:39;96365.91;;;25.11;38.28
73024;BME280;61199;47.526;8.538;2023-05-28T11:44:20;96364.19;;;24.99;37.99
73024;BME280;61199;47.526;8.538;2023-05-28T11:46:55;96365.16;;;24.86;37.90
73024;BME280;61199;47.526;8.538;2023-05-28T11:49:22;96364.66;;;24.96;38.08
73024;BME280;61199;47.526;8.538;2023-05-28T11:51:52;96364.66;;;24.96;37.32
73024;BME280;61199;47.526;8.538;2023-05-28T11:54:21;96365.41;;;25.03;37.69
73024;BME280;61199;47.526;8.538;2023-05-28T11:56:48;96362.34;;;24.99;37.26
73024;BME280;61199;47.526;8.538;2023-05-28T11:59:16;96356.44;;;25.09;37.31
73024;BME280;61199;47.526;8.538;2023-05-28T12:01:44;96354.78;;;25.26;37.36
73024;BME280;61199;47.526;8.538;2023-05-28T12:04:10;96350.69;;;25.23;37.00
73024;BME280;61199;47.526;8.538;2023-05-28T12:06:53;96350.94;;;25.51;36.35
73024;BME280;61199;47.526;8.538;2023-05-28T12:09:20;96345.34;;;25.53;36.18
73024;BME280;61199;47.526;8.538;2023-05-28T12:12:19;96340.91;;;25.47;35.39
73024;BME280;61199;47.526;8.538;2023-05-28T12:14:45;96347.06;;;25.47;35.74
73024;BME280;61199;47.526;8.538;2023-05-28T12:17:13;96336.69;;;25.51;35.59
73024;BME280;61199;47.526;8.538;2023-05-28T12:19:39;96345.16;;;25.66;36.11
73024;BME280;61199;47.526;8.538;2023-05-28T12:22:14;96341.66;;;25.77;34.73
73024;BME280;61199;47.526;8.538;2023-05-28T12:24:51;96343.09;;;25.79;34.77
73024;BME280;61199;47.526;8.538;2023-05-28T12:27:20;96338.50;;;25.80;34.61
73024;BME280;61199;47.526;8.538;2023-05-28T12:29:46;96334.41;;;25.66;35.00
73024;BME280;61199;47.526;8.538;2023-05-28T12:32:20;96333.72;;;25.82;35.42
73024;BME280;61199;47.526;8.538;2023-05-28T12:34:46;96333.28;;;25.85;35.36
73024;BME280;61199;47.526;8.538;2023-05-28T12:37:12;96330.63;;;26.08;35.21
73024;BME280;61199;47.526;8.538;2023-05-28T12:39:39;96330.53;;;26.14;34.99
73024;BME280;61199;47.526;8.538;2023-05-28T12:42:06;96324.56;;;26.24;34.53
73024;BME280;61199;47.526;8.538;2023-05-28T12:44:32;96316.75;;;26.45;34.71
73024;BME280;61199;47.526;8.538;2023-05-28T12:46:59;96310.44;;;26.63;34.00
73024;BME280;61199;47.526;8.538;2023-05-28T12:49:25;96315.66;;;26.69;33.29
73024;BME280;61199;47.526;8.538;2023-05-28T12:51:52;96308.34;;;26.53;32.78
73024;BME280;61199;47.526;8.538;2023-05-28T12:54:18;96306.44;;;26.42;32.89
73024;BME280;61199;47.526;8.538;2023-05-28T12:56:45;96303.88;;;26.36;33.80
73024;BME280;61199;47.526;8.538;2023-05-28T12:59:25;96299.09;;;26.38;33.98
73024;BME280;61199;47.526;8.538;2023-05-28T13:01:52;96289.63;;;26.47;33.69
73024;BME280;61199;47.526;8.538;2023-05-28T13:04:21;96287.44;;;26.55;33.62